createdAt,value
2022-07-28T00:00:50.000Z,102099.63
2022-07-28T00:05:54.479Z,102095.22
2022-07-28T00:10:57.482Z,102061.78
2022-07-28T00:16:00.358Z,102082.56
2022-07-28T00:21:04.846Z,102083.44
2022-07-28T00:26:08.875Z,102085.97
2022-07-28T00:31:13.797Z,102080.44
2022-07-28T00:36:18.364Z,102066.97
2022-07-28T00:41:27.585Z,102071.22
2022-07-28T00:46:30.607Z,102063.50
2022-07-28T00:51:34.852Z,102072.91
2022-07-28T00:56:43.035Z,102068.97
2022-07-28T01:01:48.142Z,102063.31
2022-07-28T01:06:59.892Z,102060.09
2022-07-28T01:12:08.292Z,102057.91
2022-07-28T01:17:16.453Z,102049.06
2022-07-28T01:22:22.924Z,102048.03
2022-07-28T01:27:35.324Z,102043.94
2022-07-28T01:32:41.917Z,102041.44
2022-07-28T01:37:49.867Z,101972.81
2022-07-28T01:42:53.957Z,102033.69
2022-07-28T01:48:00.915Z,102037.03
2022-07-28T01:53:04.207Z,102023.75
2022-07-28T01:58:08.349Z,102038.06
2022-07-28T02:03:13.650Z,102033.63
2022-07-28T02:08:17.241Z,102024.28
2022-07-28T02:13:20.087Z,102024.41
2022-07-28T02:18:24.626Z,102021.13
2022-07-28T02:23:28.541Z,102021.91
2022-07-28T02:28:31.479Z,102023.03
2022-07-28T02:33:59.884Z,102010.81
2022-07-28T02:39:04.619Z,101987.50
2022-07-28T02:44:12.109Z,102017.81
2022-07-28T02:49:21.056Z,102008.47
2022-07-28T02:54:24.621Z,102002.13
2022-07-28T02:59:29.395Z,101997.69
2022-07-28T03:04:51.299Z,102011.31
2022-07-28T03:09:54.509Z,102008.34
2022-07-28T03:14:57.661Z,102008.63
2022-07-28T03:20:01.779Z,102012.75
2022-07-28T03:25:08.351Z,102010.94
2022-07-28T03:30:19.306Z,102024.78
2022-07-28T03:35:25.082Z,102008.47
2022-07-28T03:40:29.670Z,102029.19
2022-07-28T03:45:32.870Z,102028.69
2022-07-28T03:50:37.134Z,102027.41
2022-07-28T03:55:40.194Z,102033.03
2022-07-28T04:00:43.335Z,102039.75
2022-07-28T04:05:47.755Z,102025.22
2022-07-28T04:10:50.655Z,102041.44
2022-07-28T04:15:53.480Z,102049.13
2022-07-28T04:20:57.845Z,102050.81
2022-07-28T04:26:00.739Z,102047.38
2022-07-28T04:31:06.024Z,102054.06
2022-07-28T04:36:11.595Z,102040.41
2022-07-28T04:41:14.385Z,102045.63
2022-07-28T04:46:17.464Z,102051.84
2022-07-28T04:51:31.398Z,102046.25
2022-07-28T04:56:36.928Z,102055.53
2022-07-28T05:01:40.938Z,102048.16
2022-07-28T05:06:47.262Z,102034.81
2022-07-28T05:11:51.283Z,102038.03
2022-07-28T05:16:54.109Z,102037.53
2022-07-28T05:21:58.335Z,102038.13
2022-07-28T05:27:01.184Z,102044.53
2022-07-28T05:32:17.542Z,102047.16
2022-07-28T05:37:22.244Z,102048.38
2022-07-28T05:42:26.523Z,102035.41
2022-07-28T05:47:29.386Z,102051.25
2022-07-28T05:52:33.775Z,102042.63
2022-07-28T05:57:37.853Z,102049.72
2022-07-28T06:02:40.885Z,102035.72
2022-07-28T06:07:45.497Z,102023.72
2022-07-28T06:12:50.764Z,102060.44
2022-07-28T06:17:55.713Z,102052.34
2022-07-28T06:23:00.097Z,102055.97
2022-07-28T06:28:03.809Z,102059.84
2022-07-28T06:33:07.747Z,102060.75
2022-07-28T06:38:11.906Z,102067.56
2022-07-28T06:43:14.942Z,102046.81
2022-07-28T06:48:18.868Z,102043.63
2022-07-28T06:53:23.340Z,102053.47
2022-07-28T06:58:26.309Z,102056.78
2022-07-28T07:03:29.168Z,102055.81
2022-07-28T07:08:33.569Z,102046.38
2022-07-28T07:13:37.023Z,102065.94
2022-07-28T07:18:40.181Z,102057.66
2022-07-28T07:23:46.172Z,102045.97
2022-07-28T07:28:49.079Z,102046.72
2022-07-28T07:33:51.906Z,102047.19
2022-07-28T07:38:56.140Z,102038.84
2022-07-28T07:43:58.926Z,102033.88
2022-07-28T07:49:01.881Z,102039.84
2022-07-28T07:54:06.303Z,102033.53
2022-07-28T07:59:09.216Z,102024.63
2022-07-28T08:04:12.597Z,102032.19
2022-07-28T08:09:19.625Z,102022.41
2022-07-28T08:14:22.506Z,102022.44
2022-07-28T08:19:25.465Z,102022.97
2022-07-28T08:24:33.582Z,102031.53
2022-07-28T08:35:22.665Z,102022.59
2022-07-28T08:40:27.455Z,102017.16
2022-07-28T08:45:35.416Z,102020.97
2022-07-28T08:50:40.239Z,102017.41
2022-07-28T08:55:44.817Z,102021.00
2022-07-28T09:00:48.274Z,101986.53
2022-07-28T09:05:51.314Z,102014.63
2022-07-28T09:10:55.738Z,102004.50
2022-07-28T09:16:00.178Z,102010.44
2022-07-28T09:21:03.283Z,102013.31
2022-07-28T09:26:12.343Z,102016.94
2022-07-28T09:31:16.737Z,102019.41
2022-07-28T09:36:19.591Z,102012.78
2022-07-28T09:41:24.363Z,102012.25
2022-07-28T09:46:29.923Z,102023.50
2022-07-28T09:51:34.288Z,102011.78
2022-07-28T09:56:39.289Z,102006.22
2022-07-28T10:01:52.671Z,101985.94
2022-07-28T10:07:02.185Z,102011.03
2022-07-28T10:12:20.750Z,101996.25
2022-07-28T10:17:25.281Z,102004.28
2022-07-28T10:22:33.058Z,101998.97
2022-07-28T10:27:37.996Z,101992.97
2022-07-28T10:32:42.706Z,102008.53
2022-07-28T10:37:50.252Z,102010.75
2022-07-28T10:42:54.979Z,102010.66
2022-07-28T10:47:59.513Z,102000.41
2022-07-28T10:53:03.882Z,102001.34
2022-07-28T10:58:14.094Z,102006.66
2022-07-28T11:03:40.809Z,101996.34
2022-07-28T11:08:44.034Z,101986.66
2022-07-28T11:13:51.845Z,101979.72
2022-07-28T11:19:08.041Z,101962.91
2022-07-28T11:25:19.972Z,101975.31
2022-07-28T11:30:52.399Z,101977.13
2022-07-28T11:35:57.664Z,101949.06
2022-07-28T11:41:00.615Z,101951.06
2022-07-28T11:46:37.726Z,101947.94
2022-07-28T11:51:51.292Z,101957.44
2022-07-28T11:56:59.248Z,101955.53
2022-07-28T12:02:03.649Z,101955.34
2022-07-28T12:07:07.310Z,101956.19
2022-07-28T12:12:10.574Z,101953.41
2022-07-28T12:17:16.028Z,101941.13
2022-07-28T12:22:25.997Z,101939.13
2022-07-28T12:27:31.708Z,101939.22
2022-07-28T12:32:38.114Z,101939.16
2022-07-28T12:37:42.247Z,101919.25
2022-07-28T12:42:45.384Z,101851.31
2022-07-28T12:47:56.186Z,101920.28
2022-07-28T12:53:07.009Z,101903.50
2022-07-28T12:58:26.735Z,101921.94
2022-07-28T13:03:31.037Z,101910.50
2022-07-28T13:08:44.548Z,101896.94
2022-07-28T13:13:49.422Z,101909.34
2022-07-28T13:18:55.248Z,101912.34
2022-07-28T13:23:58.066Z,101889.59
2022-07-28T13:29:01.311Z,101905.59
2022-07-28T13:34:06.907Z,101889.84
2022-07-28T13:39:10.746Z,101895.31
2022-07-28T13:44:13.770Z,101883.22
2022-07-28T13:49:18.540Z,101882.63
2022-07-28T13:54:24.485Z,101851.63
2022-07-28T13:59:27.507Z,101873.81
2022-07-28T14:04:34.961Z,101887.88
2022-07-28T14:09:46.220Z,101881.28
2022-07-28T14:14:52.109Z,101883.63
2022-07-28T14:19:57.423Z,101870.06
2022-07-28T14:25:00.351Z,101879.13
2022-07-28T14:30:04.078Z,101858.03
2022-07-28T14:35:09.363Z,101872.31
2022-07-28T14:40:13.623Z,101875.03
2022-07-28T14:45:16.548Z,101873.75
2022-07-28T14:50:20.707Z,101859.03
2022-07-28T14:55:23.717Z,101859.97
2022-07-28T15:00:28.311Z,101855.34
2022-07-28T15:05:32.464Z,101854.84
2022-07-28T15:10:35.374Z,101849.75
2022-07-28T15:15:42.868Z,101853.72
2022-07-28T15:20:49.772Z,101852.41
2022-07-28T15:25:53.176Z,101854.13
2022-07-28T15:30:59.011Z,101847.50
2022-07-28T15:36:03.954Z,101842.09
2022-07-28T15:41:07.042Z,101840.84
2022-07-28T15:46:11.895Z,101799.59
2022-07-28T15:51:19.449Z,101823.19
2022-07-28T15:56:26.274Z,101823.38
2022-07-28T16:01:30.926Z,101787.91
2022-07-28T16:06:53.159Z,101810.59
2022-07-28T16:11:56.363Z,101815.97
2022-07-28T16:16:59.243Z,101811.50
2022-07-28T16:22:04.160Z,101809.38
2022-07-28T16:27:07.075Z,101814.22
2022-07-28T16:32:10.100Z,101815.19
2022-07-28T16:37:19.362Z,101815.59
2022-07-28T16:42:22.677Z,101819.09
2022-07-28T16:47:25.743Z,101824.63
2022-07-28T16:52:30.051Z,101813.78
2022-07-28T16:57:32.833Z,101815.59
2022-07-28T17:02:35.935Z,101815.41
2022-07-28T17:07:46.231Z,101810.50
2022-07-28T17:12:50.127Z,101793.97
2022-07-28T17:17:53.477Z,101813.38
2022-07-28T17:22:58.306Z,101813.78
2022-07-28T17:28:01.156Z,101792.56
2022-07-28T17:33:08.775Z,101777.38
2022-07-28T17:38:15.807Z,101792.47
2022-07-28T17:43:19.396Z,101792.16
2022-07-28T17:48:22.739Z,101785.44
2022-07-28T17:53:29.703Z,101784.41
2022-07-28T17:58:34.074Z,101784.47
2022-07-28T18:03:56.425Z,101791.63
2022-07-28T18:09:06.877Z,101788.44
2022-07-28T18:14:10.578Z,101799.53
2022-07-28T18:19:13.978Z,101792.56
2022-07-28T18:24:21.729Z,101796.94
2022-07-28T18:29:37.731Z,101789.03
2022-07-28T18:34:45.253Z,101790.97
2022-07-28T18:39:50.086Z,101774.50
2022-07-28T18:44:52.913Z,101793.31
2022-07-28T18:50:27.818Z,101797.22
2022-07-28T18:55:37.028Z,101795.84
2022-07-28T19:00:41.790Z,101801.19
2022-07-28T19:05:46.785Z,101800.06
2022-07-28T19:10:51.163Z,101810.38
2022-07-28T19:15:54.024Z,101812.06
2022-07-28T19:20:57.039Z,101797.28
2022-07-28T19:26:03.884Z,101811.53
2022-07-28T19:31:10.558Z,101814.47
2022-07-28T19:36:15.820Z,101815.63
2022-07-28T19:41:20.165Z,101816.41
2022-07-28T19:46:24.825Z,101822.22
2022-07-28T19:51:31.483Z,101837.09
2022-07-28T19:56:35.664Z,101847.28
2022-07-28T20:01:46.620Z,101850.13
2022-07-28T20:06:55.556Z,101857.88
2022-07-28T20:12:04.260Z,101862.41
2022-07-28T20:17:35.686Z,101853.44
2022-07-28T20:22:38.420Z,101861.31
2022-07-28T20:27:43.657Z,101861.81
2022-07-28T20:32:51.210Z,101863.75
2022-07-28T20:37:54.060Z,101868.91
2022-07-28T20:42:58.277Z,101876.56
2022-07-28T20:48:04.093Z,101874.63
2022-07-28T20:53:09.947Z,101880.91
2022-07-28T20:58:15.298Z,101877.41
2022-07-28T21:03:18.304Z,101873.47
2022-07-28T21:08:23.684Z,101886.22
2022-07-28T21:13:31.065Z,101882.44
2022-07-28T21:18:34.675Z,101884.34
2022-07-28T21:23:37.684Z,101887.06
2022-07-28T21:28:56.880Z,101889.03
2022-07-28T21:33:59.708Z,101884.84
2022-07-28T21:39:03.041Z,101883.28
2022-07-28T21:44:07.299Z,101890.09
2022-07-28T21:49:10.174Z,101888.69
2022-07-28T21:54:13.792Z,101888.19
2022-07-28T21:59:18.384Z,101892.91
2022-07-28T22:04:21.707Z,101885.91
2022-07-28T22:09:24.854Z,101890.38
2022-07-28T22:14:32.206Z,101893.88
2022-07-28T22:19:35.138Z,101902.28
2022-07-28T22:24:38.023Z,101898.38
2022-07-28T22:29:44.119Z,101894.75
2022-07-28T22:34:54.397Z,101847.84
2022-07-28T22:39:57.273Z,101895.50
2022-07-28T22:45:01.480Z,101892.03
2022-07-28T22:50:06.322Z,101885.84
2022-07-28T23:00:32.889Z,101891.44
2022-07-28T23:05:39.377Z,101892.16
2022-07-28T23:10:42.557Z,101895.97
2022-07-28T23:15:46.988Z,101894.50
2022-07-28T23:20:49.866Z,101898.41
2022-07-28T23:25:52.849Z,101902.97
2022-07-28T23:30:58.359Z,101881.00
2022-07-28T23:36:01.339Z,101881.41
2022-07-28T23:41:04.280Z,101887.91
2022-07-28T23:46:08.947Z,101879.56
2022-07-28T23:51:11.885Z,101883.41
2022-07-28T23:56:15.688Z,101886.44
